Benson, Arizona
Current Conditions -  °F | °C
As of 10:56 PM on Saturday 22 Nov 2014 (Local Time) from KALK Reporting Station
Clear Clear  
Wind Chill: 38°   Ceiling: Unl
Heat Index: 44°   Visibility: 10mi
Dew Point: 24°   Wind: 12mph
Humidity: 45%   Direction: 240°WSW
Pressure: 30.06"   Gusts: NA
Location:  31.97°N, 110.29°W
Report Text: KALK 230556Z AUTO 24010KT 10SM CLR 07/M04 A3006 RMK AO2 SLP124 T00671044 10150 20044 56006 TSNO
Loading
Personal Weather Stations






























Interactive Weather Map New forecast layout! Learn more

10-Day Weather Forecast

Advertisements
Track Severe Weather on mobile